Time;durP1;ratioP1;P1;durP2;ratioP2;P2;SDS_P1;SDS_P2;PMS_P1;PMS_P2;Temp;Humidity;BMP_temperature;BMP_pressure;BME280_temperature;BME280_humidity;BME280_pressure;Samples;Min_cycle;Max_cycle;Signal;HPM_P1;HPM_P2
2021/12/29 00:00:24;;;;;;;78.70;34.85;;;;;;;3.22;100.00;100830.09;4982356;28;20123;-69
2021/12/29 00:03:10;;;;;;;79.57;35.95;;;;;;;2.61;100.00;100822.28;4983211;28;20026;-70
2021/12/29 00:05:56;;;;;;;86.15;37.33;;;;;;;2.85;100.00;100819.22;4982842;28;20073;-70
2021/12/29 00:08:42;;;;;;;85.65;35.90;;;;;;;2.49;100.00;100821.25;4996346;28;20443;-70
2021/12/29 00:11:28;;;;;;;82.00;35.30;;;;;;;2.37;100.00;100828.78;4996033;28;20030;-68
2021/12/29 00:14:14;;;;;;;95.15;35.60;;;;;;;2.36;100.00;100838.25;4996113;28;20105;-68
2021/12/29 00:17:00;;;;;;;89.72;35.60;;;;;;;2.38;100.00;100839.16;4981896;28;20345;-69
2021/12/29 00:19:46;;;;;;;86.65;35.20;;;;;;;2.13;100.00;100842.13;4995747;28;20057;-69
2021/12/29 00:22:32;;;;;;;77.13;33.85;;;;;;;2.26;100.00;100853.56;4982890;28;20101;-70
2021/12/29 00:25:18;;;;;;;96.18;35.05;;;;;;;2.31;100.00;100852.81;4996114;28;20027;-68
2021/12/29 00:28:04;;;;;;;88.25;33.85;;;;;;;2.58;100.00;100855.84;4996908;28;20040;-68
2021/12/29 00:30:50;;;;;;;92.70;36.38;;;;;;;2.31;100.00;100850.22;4994964;28;20096;-69
2021/12/29 00:33:36;;;;;;;86.63;34.38;;;;;;;2.67;100.00;100840.50;4996549;28;20030;-69
2021/12/29 00:36:22;;;;;;;88.65;35.88;;;;;;;2.58;100.00;100826.56;4995811;28;20404;-69
2021/12/29 00:39:07;;;;;;;93.47;35.10;;;;;;;2.87;100.00;100833.03;4996475;28;20062;-69
2021/12/29 00:41:53;;;;;;;81.25;33.97;;;;;;;3.52;100.00;100850.34;4996034;28;20038;-70
2021/12/29 00:44:39;;;;;;;74.82;32.55;;;;;;;2.86;100.00;100839.06;4995603;28;20026;-69
2021/12/29 00:47:29;;;;;;;81.72;32.65;;;;;;;2.47;100.00;100839.31;4995605;28;20037;-70
2021/12/29 00:50:16;;;;;;;75.53;31.58;;;;;;;2.57;100.00;100838.59;4995388;28;20037;-69
2021/12/29 00:53:02;;;;;;;71.45;29.88;;;;;;;2.85;100.00;100838.19;4995696;28;20038;-69
2021/12/29 00:55:47;;;;;;;81.80;32.95;;;;;;;2.95;100.00;100844.38;4981713;28;20463;-69
2021/12/29 00:58:34;;;;;;;73.53;31.73;;;;;;;3.09;100.00;100848.91;4996181;28;20034;-69
2021/12/29 01:01:20;;;;;;;73.93;32.45;;;;;;;3.20;100.00;100847.34;4981486;28;20360;-70
2021/12/29 01:04:06;;;;;;;82.82;34.28;;;;;;;2.58;100.00;100853.25;4995683;28;20038;-69
2021/12/29 01:06:52;;;;;;;71.32;31.50;;;;;;;2.23;100.00;100869.91;4995800;28;20375;-69
2021/12/29 01:09:38;;;;;;;85.85;35.25;;;;;;;2.22;100.00;100865.59;4995498;28;20030;-69
2021/12/29 01:12:25;;;;;;;81.55;33.40;;;;;;;2.32;100.00;100859.72;4995775;28;20026;-68
2021/12/29 01:15:14;;;;;;;84.55;35.05;;;;;;;2.90;100.00;100859.81;4994958;28;20452;-69
2021/12/29 01:18:04;;;;;;;78.50;33.85;;;;;;;2.67;100.00;100856.03;4994243;28;20199;-68
2021/12/29 01:20:50;;;;;;;84.82;34.92;;;;;;;2.14;100.00;100859.41;4994945;28;20062;-69
2021/12/29 01:23:36;;;;;;;93.93;36.58;;;;;;;1.87;100.00;100861.47;4995258;28;20090;-68
2021/12/29 01:26:22;;;;;;;108.75;38.03;;;;;;;2.24;100.00;100853.53;4994738;28;20033;-70
2021/12/29 01:29:08;;;;;;;100.72;35.42;;;;;;;2.16;100.00;100839.63;4981971;28;20022;-69
2021/12/29 01:31:55;;;;;;;110.05;37.00;;;;;;;2.24;100.00;100835.44;4994785;28;20033;-68
2021/12/29 01:34:41;;;;;;;86.03;34.55;;;;;;;2.06;100.00;100839.41;4981626;28;20471;-69
2021/12/29 01:37:27;;;;;;;97.13;34.63;;;;;;;2.08;100.00;100837.72;4995165;28;20022;-70
2021/12/29 01:40:15;;;;;;;103.20;36.25;;;;;;;2.25;100.00;100832.00;4994891;28;20207;-68
2021/12/29 01:43:03;;;;;;;89.68;34.85;;;;;;;2.10;100.00;100830.88;4981609;28;20291;-69
2021/12/29 01:45:48;;;;;;;124.18;38.53;;;;;;;2.24;100.00;100826.81;4994879;28;20073;-69
2021/12/29 01:48:34;;;;;;;113.90;38.40;;;;;;;2.78;100.00;100817.38;4994756;28;20061;-70
2021/12/29 01:51:20;;;;;;;88.85;34.63;;;;;;;2.21;100.00;100830.22;4994184;28;20045;-69
2021/12/29 01:54:16;;;;;;;109.93;38.10;;;;;;;2.61;100.00;100834.38;4994396;28;20030;-69
2021/12/29 01:57:05;;;;;;;111.43;37.13;;;;;;;2.22;100.00;100842.31;4994681;28;20104;-69
2021/12/29 01:59:51;;;;;;;115.30;38.90;;;;;;;1.95;100.00;100836.66;4994706;28;20030;-69
2021/12/29 02:02:37;;;;;;;99.57;36.47;;;;;;;1.98;100.00;100836.72;4994762;28;20026;-69
2021/12/29 02:05:23;;;;;;;104.25;35.70;;;;;;;1.80;100.00;100851.00;4995328;28;20406;-70
2021/12/29 02:08:10;;;;;;;123.15;38.22;;;;;;;1.77;100.00;100856.94;4994779;28;20026;-69
2021/12/29 02:10:57;;;;;;;118.60;38.13;;;;;;;2.04;100.00;100852.31;4979726;28;20026;-69
2021/12/29 02:13:43;;;;;;;102.35;37.05;;;;;;;1.97;100.00;100853.03;4995089;28;20034;-69
2021/12/29 02:16:29;;;;;;;103.38;37.15;;;;;;;2.04;100.00;100839.38;4995079;28;20149;-69
2021/12/29 02:19:15;;;;;;;103.80;37.97;;;;;;;1.84;100.00;100835.56;4994712;28;20026;-69
2021/12/29 02:22:08;;;;;;;100.53;39.55;;;;;;;2.17;100.00;100837.91;4995231;28;20038;-69
2021/12/29 02:25:06;;;;;;;83.38;36.25;;;;;;;2.10;100.00;100834.34;4994578;28;20470;-69
2021/12/29 02:27:54;;;;;;;92.00;38.72;;;;;;;2.24;100.00;100829.41;4994040;28;20045;-69
2021/12/29 02:30:40;;;;;;;99.20;39.33;;;;;;;2.11;100.00;100828.34;4980934;28;20370;-69
2021/12/29 02:33:27;;;;;;;113.90;39.60;;;;;;;2.06;100.00;100821.34;4993108;28;20085;-68
2021/12/29 02:36:16;;;;;;;106.25;39.72;;;;;;;2.08;100.00;100828.28;4994933;28;20060;-69
2021/12/29 02:39:04;;;;;;;111.85;39.17;;;;;;;1.70;100.00;100824.13;4994609;28;20113;-69
2021/12/29 02:41:53;;;;;;;107.65;39.40;;;;;;;1.95;100.00;100835.75;4993486;28;20467;-69
2021/12/29 02:44:39;;;;;;;94.68;40.13;;;;;;;1.87;100.00;100821.84;4981376;28;20030;-68
2021/12/29 02:47:25;;;;;;;100.80;40.03;;;;;;;2.13;100.00;100818.88;4994576;28;20446;-69
2021/12/29 02:50:15;;;;;;;99.82;40.92;;;;;;;1.90;100.00;100809.88;4994488;28;20163;-69
2021/12/29 02:53:00;;;;;;;96.68;40.60;;;;;;;1.55;100.00;100805.72;4994555;28;20101;-68
2021/12/29 02:55:46;;;;;;;133.20;43.28;;;;;;;1.70;100.00;100802.56;4980097;28;20037;-70
2021/12/29 02:58:33;;;;;;;119.30;44.80;;;;;;;1.78;100.00;100806.16;4994493;28;20031;-69
2021/12/29 03:01:19;;;;;;;97.45;41.72;;;;;;;2.18;100.00;100798.31;4979923;28;20050;-69
2021/12/29 03:04:06;;;;;;;103.22;42.05;;;;;;;1.42;100.00;100788.25;4998275;28;20057;-68
2021/12/29 03:06:52;;;;;;;116.20;44.92;;;;;;;2.13;100.00;100793.03;4997393;28;20030;-70
2021/12/29 03:09:37;;;;;;;101.63;41.28;;;;;;;2.42;100.00;100778.91;4998583;28;20443;-69
2021/12/29 03:12:23;;;;;;;100.63;42.97;;;;;;;2.18;100.00;100772.44;4983686;28;20092;-69
2021/12/29 03:15:09;;;;;;;107.13;44.42;;;;;;;2.16;100.00;100774.13;4998124;28;20018;-69
2021/12/29 03:17:55;;;;;;;115.35;45.15;;;;;;;2.47;100.00;100766.03;4984139;28;20052;-70
2021/12/29 03:20:41;;;;;;;108.72;43.53;;;;;;;2.05;100.00;100757.59;4997768;28;20026;-70
2021/12/29 03:23:27;;;;;;;107.00;43.58;;;;;;;1.92;100.00;100758.22;4998426;28;20369;-68
2021/12/29 03:26:12;;;;;;;102.75;43.47;;;;;;;2.18;100.00;100757.84;4997621;28;20153;-69
2021/12/29 03:28:59;;;;;;;125.38;45.05;;;;;;;1.66;100.00;100760.34;4984109;28;20026;-68
2021/12/29 03:31:46;;;;;;;115.95;45.50;;;;;;;1.67;100.00;100764.66;4996567;28;20081;-69
2021/12/29 03:34:31;;;;;;;122.13;46.40;;;;;;;1.83;100.00;100774.44;4997448;28;20085;-68
2021/12/29 03:37:17;;;;;;;122.03;46.30;;;;;;;1.82;100.00;100764.06;4997351;28;20102;-69
2021/12/29 03:40:05;;;;;;;109.45;45.67;;;;;;;2.17;100.00;100770.72;4997709;28;20038;-68
2021/12/29 03:42:50;;;;;;;123.25;48.03;;;;;;;2.58;100.00;100760.16;4997541;28;20072;-69
2021/12/29 03:45:38;;;;;;;107.03;44.13;;;;;;;2.11;100.00;100760.25;4996829;28;20411;-69
2021/12/29 03:48:26;;;;;;;109.43;44.67;;;;;;;1.97;100.00;100772.94;4997679;28;20030;-69
2021/12/29 03:51:12;;;;;;;106.32;44.28;;;;;;;1.91;100.00;100772.84;4998072;28;20166;-70
2021/12/29 03:53:58;;;;;;;97.95;42.75;;;;;;;1.91;100.00;100771.97;4997768;28;20089;-70
2021/12/29 03:56:44;;;;;;;105.35;44.30;;;;;;;1.51;100.00;100780.69;4997044;28;20022;-69
2021/12/29 03:59:30;;;;;;;105.28;41.95;;;;;;;1.34;100.00;100784.66;4997147;28;20034;-69
2021/12/29 04:02:16;;;;;;;111.55;44.90;;;;;;;1.15;100.00;100787.69;4996811;28;20046;-69
2021/12/29 04:05:02;;;;;;;99.07;42.30;;;;;;;1.34;100.00;100788.94;4997712;28;20120;-69
2021/12/29 04:07:49;;;;;;;102.35;42.58;;;;;;;1.21;100.00;100785.25;4982475;28;20034;-69
2021/12/29 04:10:36;;;;;;;101.88;41.80;;;;;;;1.02;100.00;100788.28;4984247;28;20053;-70
2021/12/29 04:13:22;;;;;;;100.28;40.97;;;;;;;0.87;100.00;100782.75;4996267;28;20423;-69
2021/12/29 04:16:15;;;;;;;96.30;41.50;;;;;;;0.98;100.00;100785.56;4996923;28;20092;-69
2021/12/29 04:22:13;;;;;;;93.82;40.80;;;;;;;1.02;100.00;100798.59;4968379;28;20109;-69
2021/12/29 04:24:59;;;;;;;102.72;41.35;;;;;;;1.17;100.00;100791.19;4983249;28;20038;-69
2021/12/29 04:27:46;;;;;;;92.38;40.50;;;;;;;1.32;100.00;100786.31;4996323;28;20036;-69
2021/12/29 04:30:32;;;;;;;93.20;40.72;;;;;;;1.29;100.00;100788.81;4982467;28;20030;-70
2021/12/29 04:33:19;;;;;;;87.15;38.75;;;;;;;0.87;100.00;100787.94;4997517;28;20022;-70
2021/12/29 04:36:06;;;;;;;93.68;39.95;;;;;;;1.04;100.00;100773.69;4982994;28;20027;-69
2021/12/29 04:38:53;;;;;;;93.43;39.97;;;;;;;1.09;100.00;100771.22;4996299;28;20367;-69
2021/12/29 04:41:39;;;;;;;103.80;42.47;;;;;;;1.14;100.00;100761.84;4996539;28;20100;-70
2021/12/29 04:44:25;;;;;;;91.95;40.47;;;;;;;1.28;100.00;100752.69;4995255;28;20041;-70
2021/12/29 04:47:12;;;;;;;93.18;41.67;;;;;;;1.24;100.00;100744.00;4981945;28;20031;-69
2021/12/29 04:50:01;;;;;;;87.28;39.97;;;;;;;1.48;100.00;100741.91;4981889;28;20030;-69
2021/12/29 04:52:47;;;;;;;88.03;39.78;;;;;;;1.48;100.00;100752.22;4982949;28;20112;-69
2021/12/29 04:55:34;;;;;;;91.15;39.13;;;;;;;1.49;100.00;100746.22;4996642;28;20022;-70
2021/12/29 04:58:21;;;;;;;100.78;41.35;;;;;;;1.69;100.00;100744.88;4982316;28;20097;-69
2021/12/29 05:01:07;;;;;;;86.78;40.05;;;;;;;1.67;100.00;100746.56;4995777;28;20548;-69
2021/12/29 05:03:53;;;;;;;89.65;39.50;;;;;;;1.28;100.00;100750.13;4996393;28;20034;-69
2021/12/29 05:09:44;;;;;;;95.63;41.42;;;;;;;1.69;100.00;100746.63;4994870;28;20395;-68
2021/12/29 05:12:30;;;;;;;102.28;43.17;;;;;;;1.76;100.00;100746.75;4996728;28;20097;-69
2021/12/29 05:15:15;;;;;;;90.53;41.00;;;;;;;1.59;100.00;100739.53;4994086;28;20030;-70
2021/12/29 05:18:02;;;;;;;90.28;40.67;;;;;;;1.54;100.00;100752.34;4982449;28;20038;-69
2021/12/29 05:20:48;;;;;;;93.60;41.45;;;;;;;1.56;100.00;100748.09;4995573;28;20030;-71
2021/12/29 05:23:34;;;;;;;81.53;40.03;;;;;;;1.46;100.00;100740.13;4996083;28;20058;-69
2021/12/29 05:26:20;;;;;;;85.82;38.75;;;;;;;1.13;100.00;100745.53;4995296;28;20034;-69
2021/12/29 05:29:06;;;;;;;81.93;39.42;;;;;;;1.13;100.00;100745.53;4994659;28;20034;-71
2021/12/29 05:31:52;;;;;;;81.72;39.83;;;;;;;1.25;100.00;100743.19;4995349;28;20034;-69
2021/12/29 05:34:38;;;;;;;91.47;41.63;;;;;;;1.23;100.00;100737.09;4995609;28;20037;-70
2021/12/29 05:37:23;;;;;;;92.38;41.17;;;;;;;1.34;100.00;100729.56;4995667;28;20030;-70
2021/12/29 05:40:10;;;;;;;82.10;40.10;;;;;;;1.31;100.00;100734.66;4995326;28;20026;-69
2021/12/29 05:42:58;;;;;;;90.80;39.50;;;;;;;1.34;100.00;100722.72;4981733;28;20391;-70
2021/12/29 05:45:43;;;;;;;82.68;40.10;;;;;;;1.38;100.00;100719.34;4981653;28;20038;-69
2021/12/29 05:48:30;;;;;;;89.90;41.95;;;;;;;1.25;100.00;100719.97;4993075;28;20026;-69
2021/12/29 05:51:16;;;;;;;84.13;38.92;;;;;;;1.21;100.00;100720.75;4994003;28;20366;-69
2021/12/29 05:54:01;;;;;;;82.38;39.50;;;;;;;1.29;100.00;100721.72;4982116;28;20030;-69
2021/12/29 05:56:48;;;;;;;94.97;41.30;;;;;;;1.49;100.00;100727.28;4980573;28;20166;-69
2021/12/29 05:59:35;;;;;;;91.85;41.63;;;;;;;1.40;100.00;100732.28;4996081;28;20387;-70
2021/12/29 06:02:20;;;;;;;81.88;39.38;;;;;;;1.59;100.00;100737.81;4994581;28;20070;-70
2021/12/29 06:05:07;;;;;;;96.25;41.60;;;;;;;1.52;100.00;100740.28;4994811;28;20084;-69
2021/12/29 06:07:53;;;;;;;93.90;40.60;;;;;;;1.52;100.00;100735.97;4994792;28;20038;-69
2021/12/29 06:10:38;;;;;;;94.88;41.30;;;;;;;1.85;100.00;100736.56;4994944;28;20033;-69
2021/12/29 06:13:24;;;;;;;93.28;40.88;;;;;;;2.00;100.00;100739.41;4994677;28;20045;-70
2021/12/29 06:16:10;;;;;;;90.20;40.35;;;;;;;1.95;100.00;100735.91;4995574;28;20041;-69
2021/12/29 06:18:56;;;;;;;83.63;37.55;;;;;;;1.82;100.00;100748.56;4981443;28;20034;-70
2021/12/29 06:21:41;;;;;;;93.00;37.92;;;;;;;1.58;100.00;100753.28;4992664;28;20439;-70
2021/12/29 06:24:27;;;;;;;95.30;39.67;;;;;;;1.78;100.00;100754.53;4994782;28;20034;-70
2021/12/29 06:27:13;;;;;;;91.03;37.95;;;;;;;1.90;100.00;100747.00;4994800;28;20030;-69
2021/12/29 06:29:59;;;;;;;88.75;38.10;;;;;;;1.49;100.00;100760.84;4994961;28;20049;-70
2021/12/29 06:32:45;;;;;;;104.00;40.42;;;;;;;1.42;100.00;100762.44;4981321;28;20014;-70
2021/12/29 06:35:31;;;;;;;98.45;40.45;;;;;;;1.81;100.00;100762.34;4994533;28;20097;-70
2021/12/29 06:38:17;;;;;;;97.25;39.97;;;;;;;1.90;100.00;100765.06;4996321;28;20058;-68
2021/12/29 06:41:02;;;;;;;100.15;40.47;;;;;;;1.54;100.00;100762.69;4984562;28;20069;-69
2021/12/29 06:43:48;;;;;;;83.63;36.92;;;;;;;1.84;100.00;100765.81;4998555;28;20030;-68
2021/12/29 06:46:34;;;;;;;101.53;39.05;;;;;;;1.28;100.00;100763.03;4998469;28;20026;-69
2021/12/29 06:49:21;;;;;;;99.68;40.80;;;;;;;1.37;100.00;100763.19;4997759;28;20041;-69
2021/12/29 06:52:07;;;;;;;97.70;39.33;;;;;;;1.44;100.00;100765.91;4998650;28;20026;-69
2021/12/29 06:54:53;;;;;;;103.20;43.65;;;;;;;1.25;100.00;100766.41;4998473;28;20026;-70
2021/12/29 06:57:39;;;;;;;93.00;40.63;;;;;;;1.40;100.00;100760.69;4984986;28;20096;-68
2021/12/29 07:00:25;;;;;;;100.30;42.30;;;;;;;2.03;100.00;100765.31;4984893;28;20064;-69
2021/12/29 07:03:10;;;;;;;113.72;45.92;;;;;;;1.86;100.00;100752.94;4984485;28;20030;-69
2021/12/29 07:05:56;;;;;;;106.95;44.85;;;;;;;2.23;100.00;100753.59;4998128;28;20470;-69
2021/12/29 07:08:42;;;;;;;113.03;47.55;;;;;;;2.02;100.00;100744.63;4997893;28;20367;-69
2021/12/29 07:11:28;;;;;;;105.30;48.05;;;;;;;1.54;100.00;100759.22;4998729;28;20444;-69
2021/12/29 07:14:13;;;;;;;112.57;51.30;;;;;;;2.30;100.00;100757.16;4998505;28;20117;-69
2021/12/29 07:16:59;;;;;;;109.43;48.83;;;;;;;2.28;100.00;100764.88;4998112;28;20029;-68
2021/12/29 07:19:45;;;;;;;104.53;48.83;;;;;;;2.23;100.00;100766.53;4996106;28;20369;-69
2021/12/29 07:22:31;;;;;;;114.60;50.33;;;;;;;2.39;100.00;100765.03;4998551;28;20348;-68
2021/12/29 07:25:17;;;;;;;126.70;55.85;;;;;;;2.27;100.00;100764.84;4984779;28;20037;-68
2021/12/29 07:28:03;;;;;;;108.15;49.47;;;;;;;2.34;100.00;100759.81;4998078;28;20026;-67
2021/12/29 07:30:48;;;;;;;102.95;47.03;;;;;;;1.84;100.00;100770.13;4996814;28;20431;-69
2021/12/29 07:33:34;;;;;;;106.90;47.45;;;;;;;1.84;100.00;100778.75;4996624;28;20097;-71
2021/12/29 07:36:20;;;;;;;102.47;47.30;;;;;;;2.11;100.00;100776.66;4995395;28;20034;-70
2021/12/29 07:39:11;;;;;;;106.50;47.88;;;;;;;1.70;100.00;100775.03;4983888;28;20077;-69
2021/12/29 07:41:57;;;;;;;112.10;49.30;;;;;;;1.69;100.00;100780.19;4983503;28;20027;-69
2021/12/29 07:44:45;;;;;;;114.03;49.63;;;;;;;1.48;100.00;100790.94;4996826;28;20499;-69
2021/12/29 07:47:31;;;;;;;104.57;47.35;;;;;;;1.77;100.00;100792.38;4997388;28;20038;-69
2021/12/29 07:50:21;;;;;;;115.32;51.50;;;;;;;1.55;100.00;100784.19;4994074;28;20033;-70
2021/12/29 07:53:07;;;;;;;111.55;50.65;;;;;;;2.34;100.00;100789.97;4997281;28;20042;-69
2021/12/29 07:55:53;;;;;;;120.10;52.30;;;;;;;2.17;100.00;100784.50;4997571;28;20403;-70
2021/12/29 07:58:39;;;;;;;118.88;52.45;;;;;;;2.04;100.00;100785.13;4996238;28;20038;-69
2021/12/29 08:01:25;;;;;;;122.18;53.38;;;;;;;2.05;100.00;100780.84;4996701;28;20058;-68
2021/12/29 08:04:13;;;;;;;115.78;50.55;;;;;;;2.01;100.00;100776.47;4982995;28;20439;-71
2021/12/29 08:06:59;;;;;;;110.68;49.97;;;;;;;2.07;100.00;100782.63;4996309;28;20041;-72
2021/12/29 08:09:45;;;;;;;117.57;54.03;;;;;;;1.90;100.00;100788.31;4997038;28;20475;-71
2021/12/29 08:12:31;;;;;;;139.75;59.35;;;;;;;1.52;100.00;100797.91;4994428;28;20030;-71
2021/12/29 08:15:17;;;;;;;138.38;59.00;;;;;;;1.72;100.00;100798.31;4995912;28;20037;-70
2021/12/29 08:18:05;;;;;;;151.73;61.97;;;;;;;2.12;100.00;100795.59;4983053;28;20034;-71
2021/12/29 08:20:51;;;;;;;131.02;57.22;;;;;;;2.27;100.00;100799.31;4994669;28;20033;-73
2021/12/29 08:23:37;;;;;;;124.10;52.72;;;;;;;2.81;100.00;100802.78;4996942;28;20032;-73
2021/12/29 08:26:22;;;;;;;119.38;45.33;;;;;;;2.10;100.00;100795.59;4996870;28;20081;-73
2021/12/29 08:29:08;;;;;;;132.90;53.20;;;;;;;2.24;100.00;100786.34;4997134;28;20438;-72
2021/12/29 08:31:56;;;;;;;143.02;55.35;;;;;;;1.51;100.00;100787.56;4982152;28;20069;-71
2021/12/29 08:34:42;;;;;;;133.05;53.70;;;;;;;2.12;100.00;100790.41;4997533;28;20069;-71
2021/12/29 08:37:28;;;;;;;128.63;50.72;;;;;;;1.97;100.00;100788.44;4996389;28;20352;-71
2021/12/29 08:40:14;;;;;;;112.03;47.47;;;;;;;1.92;100.00;100786.66;4996802;28;20356;-72
2021/12/29 08:43:02;;;;;;;135.40;53.65;;;;;;;1.72;100.00;100793.16;4995183;28;20027;-72
2021/12/29 08:45:48;;;;;;;133.70;51.35;;;;;;;1.56;100.00;100784.22;4995360;28;20061;-71
2021/12/29 08:48:37;;;;;;;116.18;50.70;;;;;;;1.99;100.00;100791.06;4994315;28;20101;-71
2021/12/29 08:51:23;;;;;;;121.75;52.08;;;;;;;2.56;100.00;100784.28;4996480;28;20037;-72
2021/12/29 08:54:08;;;;;;;133.75;56.45;;;;;;;2.94;100.00;100783.97;4997476;28;20032;-71
2021/12/29 08:56:55;;;;;;;143.30;53.55;;;;;;;2.82;100.00;100778.63;4996557;28;20030;-71
2021/12/29 08:59:41;;;;;;;144.63;53.88;;;;;;;2.29;100.00;100792.44;4995730;28;20030;-71
2021/12/29 09:02:26;;;;;;;142.65;55.30;;;;;;;2.55;100.00;100788.59;4995888;28;20147;-71
2021/12/29 09:05:13;;;;;;;115.07;48.53;;;;;;;1.92;100.00;100778.91;4995952;28;20057;-71
2021/12/29 09:07:59;;;;;;;127.80;49.55;;;;;;;2.22;100.00;100779.41;4982108;28;20466;-71
2021/12/29 09:10:45;;;;;;;126.35;49.95;;;;;;;2.25;100.00;100757.06;4982010;28;20041;-71
2021/12/29 09:13:31;;;;;;;143.02;54.95;;;;;;;2.27;100.00;100763.16;4982613;28;20030;-70
2021/12/29 09:16:17;;;;;;;130.82;51.60;;;;;;;2.06;100.00;100767.97;4995958;28;20041;-71
2021/12/29 09:19:04;;;;;;;144.73;52.78;;;;;;;1.76;100.00;100762.22;4994061;28;20034;-71
2021/12/29 09:21:53;;;;;;;141.18;53.17;;;;;;;1.65;100.00;100755.13;4982260;28;20367;-71
2021/12/29 09:24:40;;;;;;;138.98;50.50;;;;;;;1.64;100.00;100759.44;4994884;28;20030;-70
2021/12/29 09:27:26;;;;;;;172.88;56.30;;;;;;;1.47;100.00;100752.19;4996489;28;20018;-71
2021/12/29 09:30:11;;;;;;;160.63;58.83;;;;;;;1.73;100.00;100746.66;4995568;28;20030;-71
2021/12/29 09:32:58;;;;;;;160.73;56.38;;;;;;;1.66;100.00;100743.97;4995426;28;20109;-71
2021/12/29 09:35:46;;;;;;;146.00;55.40;;;;;;;1.60;100.00;100742.13;4981971;28;20061;-73
2021/12/29 09:38:38;;;;;;;130.05;50.75;;;;;;;1.88;100.00;100734.03;4978972;28;20340;-71
2021/12/29 09:41:24;;;;;;;139.85;51.10;;;;;;;1.63;100.00;100728.41;4995704;28;20105;-72
2021/12/29 09:44:11;;;;;;;144.77;53.00;;;;;;;1.86;100.00;100716.78;4994714;28;20026;-71
2021/12/29 09:46:57;;;;;;;128.77;47.30;;;;;;;1.93;100.00;100708.31;4981235;28;20030;-73
2021/12/29 09:49:43;;;;;;;133.60;47.35;;;;;;;1.76;100.00;100718.34;4995799;28;20161;-71
2021/12/29 09:52:33;;;;;;;133.48;50.38;;;;;;;2.55;100.00;100730.81;4996231;28;20026;-72
2021/12/29 09:55:21;;;;;;;118.50;49.00;;;;;;;2.55;100.00;100710.13;4995142;28;20143;-72
2021/12/29 09:58:07;;;;;;;121.90;49.22;;;;;;;2.69;100.00;100708.63;4995341;28;20030;-71
2021/12/29 10:01:00;;;;;;;135.32;52.13;;;;;;;2.71;100.00;100717.25;4994807;28;20046;-72
2021/12/29 10:03:47;;;;;;;149.43;53.67;;;;;;;2.69;100.00;100716.38;4995333;28;20026;-72
2021/12/29 10:06:33;;;;;;;130.65;48.97;;;;;;;2.22;100.00;100707.06;4995205;28;20057;-70
2021/12/29 10:09:19;;;;;;;139.68;50.88;;;;;;;2.31;100.00;100702.00;4994128;28;20081;-71
2021/12/29 10:12:11;;;;;;;141.90;53.13;;;;;;;1.66;100.00;100698.38;4994438;28;20121;-72
2021/12/29 10:14:59;;;;;;;161.13;56.05;;;;;;;2.05;100.00;100703.34;4995267;28;20054;-72
2021/12/29 10:17:45;;;;;;;150.57;55.47;;;;;;;2.23;100.00;100704.50;4995083;28;20034;-71
2021/12/29 10:20:31;;;;;;;132.23;50.13;;;;;;;2.20;100.00;100699.28;4980930;28;20451;-71
2021/12/29 10:23:26;;;;;;;143.38;51.40;;;;;;;1.90;100.00;100696.22;4994327;28;20031;-71
2021/12/29 10:26:18;;;;;;;128.70;49.78;;;;;;;1.87;100.00;100684.94;4994705;28;20458;-71
2021/12/29 10:29:09;;;;;;;138.73;50.83;;;;;;;1.98;100.00;100684.28;4995081;28;20031;-72
2021/12/29 10:32:02;;;;;;;128.10;47.20;;;;;;;1.72;100.00;100684.69;4993980;28;20408;-71
2021/12/29 10:34:53;;;;;;;142.23;51.97;;;;;;;2.12;100.00;100687.94;4995487;28;20117;-73
2021/12/29 10:37:39;;;;;;;137.27;51.92;;;;;;;2.20;100.00;100691.53;4994635;28;20033;-72
2021/12/29 10:40:28;;;;;;;123.65;48.15;;;;;;;1.99;100.00;100690.31;4980664;28;20033;-72
2021/12/29 10:43:14;;;;;;;126.05;53.05;;;;;;;2.42;100.00;100683.25;4994507;28;20030;-71
2021/12/29 10:45:59;;;;;;;131.13;50.92;;;;;;;2.19;100.00;100668.22;4994871;28;20033;-71
2021/12/29 10:48:51;;;;;;;126.43;47.65;;;;;;;2.55;100.00;100667.06;4993152;28;20388;-70
2021/12/29 10:51:43;;;;;;;114.47;48.05;;;;;;;2.48;100.00;100669.53;4995164;28;20470;-71
2021/12/29 10:54:31;;;;;;;110.60;45.72;;;;;;;2.14;100.00;100668.19;4995497;28;20030;-72
2021/12/29 10:57:18;;;;;;;103.18;46.42;;;;;;;2.50;100.00;100671.31;4993358;28;20443;-72
2021/12/29 11:00:08;;;;;;;101.68;45.58;;;;;;;2.28;100.00;100663.19;4995167;28;20053;-72
2021/12/29 11:02:57;;;;;;;111.22;47.63;;;;;;;2.22;100.00;100666.59;4994470;28;20026;-72
2021/12/29 11:05:47;;;;;;;115.78;50.67;;;;;;;2.22;100.00;100664.00;4995579;28;20130;-74
2021/12/29 11:08:49;;;;;;;103.72;43.42;;;;;;;2.10;100.00;100665.50;4993903;28;20095;-71
2021/12/29 11:11:40;;;;;;;100.32;45.85;;;;;;;2.10;100.00;100681.91;4993939;28;20110;-72
2021/12/29 11:14:37;;;;;;;106.47;45.83;;;;;;;2.56;100.00;100670.50;4994296;28;20053;-71
2021/12/29 11:17:25;;;;;;;103.57;44.75;;;;;;;2.19;100.00;100669.13;4994296;28;20035;-73
2021/12/29 11:20:20;;;;;;;96.15;43.35;;;;;;;2.06;100.00;100659.44;4979846;28;20038;-73
2021/12/29 11:23:14;;;;;;;99.65;43.13;;;;;;;2.38;100.00;100649.56;4993802;28;20041;-72
2021/12/29 11:26:01;;;;;;;90.68;39.70;;;;;;;2.20;100.00;100632.09;4997668;28;20478;-71
2021/12/29 11:28:46;;;;;;;99.72;40.85;;;;;;;1.98;100.00;100631.75;4998235;28;20375;-71
2021/12/29 11:31:40;;;;;;;100.57;44.28;;;;;;;2.13;100.00;100632.81;4995497;28;20371;-72
2021/12/29 11:34:28;;;;;;;109.38;44.33;;;;;;;2.39;100.00;100630.63;4996086;28;20077;-70
2021/12/29 11:37:14;;;;;;;93.75;41.65;;;;;;;2.87;100.00;100651.94;4996015;28;20364;-72
2021/12/29 11:40:00;;;;;;;107.18;44.88;;;;;;;2.57;100.00;100642.06;4997922;28;20061;-72
2021/12/29 11:42:47;;;;;;;108.25;45.90;;;;;;;2.58;100.00;100632.63;4995784;28;20113;-70
2021/12/29 11:45:33;;;;;;;95.05;40.45;;;;;;;2.41;100.00;100636.69;4984212;28;20027;-69
2021/12/29 11:48:21;;;;;;;101.03;44.55;;;;;;;1.87;100.00;100622.94;4996527;28;20041;-71
2021/12/29 11:51:08;;;;;;;111.35;48.38;;;;;;;2.52;100.00;100622.19;4983416;28;20038;-71
2021/12/29 11:54:12;;;;;;;137.13;60.22;;;;;;;2.77;100.00;100627.69;4983832;28;20027;-71
2021/12/29 11:57:09;;;;;;;96.30;42.65;;;;;;;2.24;100.00;100625.22;4995303;28;20062;-70
2021/12/29 12:00:23;;;;;;;93.72;42.80;;;;;;;3.07;100.00;100620.28;4996585;28;20026;-72
2021/12/29 12:03:13;;;;;;;92.57;40.45;;;;;;;2.58;100.00;100617.09;4997016;28;20129;-72
2021/12/29 12:05:59;;;;;;;71.57;35.85;;;;;;;2.19;100.00;100614.84;4997073;28;20085;-72
2021/12/29 12:08:44;;;;;;;80.72;37.15;;;;;;;1.87;100.00;100618.66;4996819;28;20037;-73
2021/12/29 12:11:31;;;;;;;90.22;39.10;;;;;;;2.26;100.00;100610.63;4997404;28;20054;-71
2021/12/29 12:14:43;;;;;;;79.90;37.20;;;;;;;2.15;100.00;100612.19;4995818;28;20026;-72
2021/12/29 12:17:29;;;;;;;79.25;38.00;;;;;;;1.87;100.00;100608.34;4997121;28;20080;-72
2021/12/29 12:20:14;;;;;;;82.43;38.55;;;;;;;1.83;100.00;100616.00;4982612;28;20030;-71
2021/12/29 12:23:00;;;;;;;77.85;38.42;;;;;;;1.97;100.00;100622.25;4997234;28;20049;-70
2021/12/29 12:25:46;;;;;;;81.65;40.20;;;;;;;2.55;100.00;100625.69;4996637;28;20041;-70
2021/12/29 12:28:44;;;;;;;83.63;38.10;;;;;;;2.56;100.00;100627.41;4997067;28;20042;-70
2021/12/29 12:31:32;;;;;;;77.68;36.78;;;;;;;2.51;100.00;100629.09;4996603;28;20026;-71
2021/12/29 12:34:22;;;;;;;84.13;42.05;;;;;;;2.55;100.00;100636.03;4982000;28;20026;-72
2021/12/29 12:37:20;;;;;;;79.28;36.95;;;;;;;2.43;100.00;100640.16;4996451;28;20022;-72
2021/12/29 12:40:08;;;;;;;81.57;38.97;;;;;;;2.70;100.00;100643.13;4994886;28;20030;-72